SVA1123 OERK-VABB
Flight info
| Callsign | SVA1123 |
|---|---|
| Flight time | N/A |
| Altitude | 29000 |
| Route | DCT RAPMA Y214 KUTNA M440 MIDGU/N0494F370 M440 TULBU N881 RASKI/N0488F390 L301 KARKU M638 EXOLU POKON2A |
| Aircraft | B77W/H-SDE1E2E3FGHIJ2J3J4J5M1RWXY/LB1D1 |
Departure
| Time | 2026-05-01 10:56 |
|---|---|
| Airport | King Khalid International Airport (OERK) |
Arrival
| Time | N/A |
|---|---|
| Airport | Chhatrapati Shivaji Maharaj International Airport (VABB) |
| Time | Latitude | Longitude | Altitude | Speed | Heading |
|---|---|---|---|---|---|
| 2026-05-01 10:55 | 24.97076 | 46.67513 | 2031 ft | 0 kts | 150° |
| 2026-05-01 10:55 | 24.97069 | 46.67518 | 2031 ft | 11 kts | 150° |
| 2026-05-01 10:56 | 24.96867 | 46.67634 | 2038 ft | 54 kts | 150° |
| 2026-05-01 10:56 | 24.96286 | 46.68004 | 2040 ft | 146 kts | 150° |
| 2026-05-01 10:56 | 24.95131 | 46.68742 | 2135 ft | 226 kts | 149° |
| 2026-05-01 10:56 | 24.93710 | 46.69642 | 3216 ft | 236 kts | 148° |
| 2026-05-01 10:57 | 24.92297 | 46.70490 | 5033 ft | 227 kts | 151° |
| 2026-05-01 10:57 | 24.90872 | 46.71268 | 6504 ft | 244 kts | 155° |
| 2026-05-01 10:57 | 24.89223 | 46.72177 | 7225 ft | 278 kts | 155° |
| 2026-05-01 10:57 | 24.87516 | 46.73194 | 8795 ft | 280 kts | 148° |
| 2026-05-01 10:58 | 24.86235 | 46.74852 | 10299 ft | 291 kts | 124° |
| 2026-05-01 10:58 | 24.85162 | 46.76707 | 11763 ft | 279 kts | 132° |
| 2026-05-01 10:58 | 24.84045 | 46.78406 | 13409 ft | 268 kts | 132° |
| 2026-05-01 10:58 | 24.82945 | 46.80030 | 14748 ft | 262 kts | 134° |
| 2026-05-01 10:59 | 24.81789 | 46.81608 | 15646 ft | 268 kts | 136° |
| 2026-05-01 10:59 | 24.80575 | 46.83161 | 16097 ft | 275 kts | 137° |
| 2026-05-01 10:59 | 24.79266 | 46.84748 | 16491 ft | 284 kts | 138° |
| 2026-05-01 10:59 | 24.77890 | 46.86357 | 16908 ft | 294 kts | 139° |
| 2026-05-01 11:00 | 24.76444 | 46.88002 | 17319 ft | 304 kts | 139° |
| 2026-05-01 11:00 | 24.74936 | 46.89688 | 17719 ft | 315 kts | 140° |
| 2026-05-01 11:00 | 24.73360 | 46.91423 | 18158 ft | 326 kts | 140° |
| 2026-05-01 11:00 | 24.71721 | 46.93208 | 18538 ft | 338 kts | 140° |
| 2026-05-01 11:01 | 24.70017 | 46.95052 | 18907 ft | 348 kts | 140° |
| 2026-05-01 11:01 | 24.68263 | 46.96943 | 19268 ft | 354 kts | 140° |
| 2026-05-01 11:01 | 24.66499 | 46.98843 | 19612 ft | 354 kts | 140° |
| 2026-05-01 11:01 | 24.64738 | 47.00735 | 19954 ft | 354 kts | 140° |
| 2026-05-01 11:02 | 24.62973 | 47.02628 | 20290 ft | 355 kts | 140° |
| 2026-05-01 11:02 | 24.61226 | 47.04498 | 20641 ft | 356 kts | 140° |
| 2026-05-01 11:02 | 24.59448 | 47.06399 | 21002 ft | 357 kts | 140° |
| 2026-05-01 11:02 | 24.57661 | 47.08306 | 21367 ft | 359 kts | 140° |
| 2026-05-01 11:03 | 24.55859 | 47.10230 | 21747 ft | 362 kts | 140° |
| 2026-05-01 11:03 | 24.54046 | 47.12163 | 22128 ft | 364 kts | 140° |
| 2026-05-01 11:03 | 24.52222 | 47.14108 | 22517 ft | 367 kts | 140° |
| 2026-05-01 11:03 | 24.50383 | 47.16067 | 22921 ft | 369 kts | 140° |
| 2026-05-01 11:04 | 24.48533 | 47.18038 | 23304 ft | 372 kts | 141° |
| 2026-05-01 11:04 | 24.46674 | 47.20018 | 23668 ft | 374 kts | 141° |
| 2026-05-01 11:04 | 24.44801 | 47.22011 | 23987 ft | 376 kts | 141° |
| 2026-05-01 11:04 | 24.42913 | 47.24019 | 24327 ft | 379 kts | 141° |
| 2026-05-01 11:05 | 24.41013 | 47.26040 | 24655 ft | 382 kts | 141° |
| 2026-05-01 11:05 | 24.39096 | 47.28078 | 24998 ft | 385 kts | 141° |
| 2026-05-01 11:05 | 24.37167 | 47.30128 | 25349 ft | 388 kts | 141° |
| 2026-05-01 11:05 | 24.35220 | 47.32195 | 25691 ft | 391 kts | 141° |
| 2026-05-01 11:06 | 24.33255 | 47.34281 | 26050 ft | 395 kts | 141° |
| 2026-05-01 11:06 | 24.31274 | 47.36382 | 26427 ft | 398 kts | 141° |
| 2026-05-01 11:06 | 24.29275 | 47.38502 | 26792 ft | 402 kts | 142° |
| 2026-05-01 11:07 | 24.25215 | 47.42804 | 27550 ft | 410 kts | 142° |
| 2026-05-01 11:07 | 24.23178 | 47.44960 | 27939 ft | 414 kts | 142° |
| 2026-05-01 11:07 | 24.21094 | 47.47166 | 28331 ft | 418 kts | 142° |
| 2026-05-01 11:07 | 24.18990 | 47.49392 | 28733 ft | 422 kts | 142° |
| 2026-05-01 11:08 | 24.16868 | 47.51636 | 29136 ft | 426 kts | 142° |
| 2026-05-01 11:08 | 24.14727 | 47.53900 | 29539 ft | 430 kts | 142° |
| 2026-05-01 11:08 | 24.10389 | 47.58483 | 30308 ft | 436 kts | 143° |
| 2026-05-01 11:09 | 24.08198 | 47.60796 | 30651 ft | 439 kts | 143° |
| 2026-05-01 11:09 | 24.05991 | 47.63126 | 31014 ft | 442 kts | 143° |
| 2026-05-01 11:09 | 24.03767 | 47.65471 | 31369 ft | 444 kts | 144° |
| 2026-05-01 11:10 | 23.99294 | 47.70186 | 32084 ft | 447 kts | 144° |
| 2026-05-01 11:10 | 23.97079 | 47.72518 | 32439 ft | 448 kts | 144° |
| 2026-05-01 11:10 | 23.94799 | 47.74918 | 32780 ft | 449 kts | 144° |
| 2026-05-01 11:10 | 23.92575 | 47.77259 | 33134 ft | 450 kts | 145° |
| 2026-05-01 11:11 | 23.90316 | 47.79634 | 33487 ft | 451 kts | 145° |
| 2026-05-01 11:11 | 23.88052 | 47.82014 | 33868 ft | 451 kts | 145° |
| 2026-05-01 11:11 | 23.85790 | 47.84390 | 34193 ft | 452 kts | 145° |
| 2026-05-01 11:11 | 23.83519 | 47.86774 | 34534 ft | 452 kts | 145° |
| 2026-05-01 11:12 | 23.81252 | 47.89152 | 34864 ft | 453 kts | 145° |
| 2026-05-01 11:12 | 23.78978 | 47.91537 | 35196 ft | 453 kts | 145° |
| 2026-05-01 11:12 | 23.76701 | 47.93923 | 35517 ft | 453 kts | 145° |
| 2026-05-01 11:12 | 23.74425 | 47.96308 | 35873 ft | 453 kts | 145° |
| 2026-05-01 11:13 | 23.72158 | 47.98683 | 36220 ft | 452 kts | 145° |
| 2026-05-01 11:13 | 23.69892 | 48.01056 | 36568 ft | 451 kts | 145° |
| 2026-05-01 11:13 | 23.67632 | 48.03421 | 36905 ft | 450 kts | 144° |
| 2026-05-01 11:13 | 23.65374 | 48.05776 | 36876 ft | 459 kts | 144° |
| 2026-05-01 11:14 | 23.60692 | 48.10652 | 36895 ft | 473 kts | 144° |
| 2026-05-01 11:14 | 23.55891 | 48.15665 | 36877 ft | 478 kts | 144° |
| 2026-05-01 11:15 | 23.51091 | 48.20684 | 36863 ft | 476 kts | 144° |
| 2026-05-01 11:15 | 23.46339 | 48.25636 | 36859 ft | 474 kts | 144° |
| 2026-05-01 11:16 | 23.41577 | 48.30591 | 36845 ft | 472 kts | 143° |
| 2026-05-01 11:16 | 23.39468 | 48.33356 | 36854 ft | 483 kts | 126° |
| 2026-05-01 11:16 | 23.38143 | 48.36760 | 36850 ft | 496 kts | 107° |
| 2026-05-01 11:17 | 23.37745 | 48.40517 | 36863 ft | 502 kts | 93° |
| 2026-05-01 11:17 | 23.37709 | 48.44343 | 36880 ft | 509 kts | 94° |
| 2026-05-01 11:17 | 23.37493 | 48.52125 | 36874 ft | 518 kts | 95° |
| 2026-05-01 11:18 | 23.37171 | 48.60071 | 36877 ft | 531 kts | 96° |
| 2026-05-01 11:18 | 23.36826 | 48.68155 | 36870 ft | 543 kts | 96° |
| 2026-05-01 11:19 | 23.36478 | 48.76456 | 36865 ft | 553 kts | 95° |
| 2026-05-01 11:19 | 23.36126 | 48.84877 | 36854 ft | 560 kts | 95° |
| 2026-05-01 11:20 | 23.35767 | 48.93378 | 36845 ft | 563 kts | 95° |
| 2026-05-01 11:20 | 23.35401 | 49.01892 | 36841 ft | 563 kts | 95° |
| 2026-05-01 11:21 | 23.35030 | 49.10386 | 36836 ft | 561 kts | 95° |
| 2026-05-01 11:21 | 23.34652 | 49.18862 | 36831 ft | 559 kts | 96° |
| 2026-05-01 11:22 | 23.34273 | 49.27242 | 36838 ft | 557 kts | 96° |
| 2026-05-01 11:22 | 23.33889 | 49.35647 | 36836 ft | 556 kts | 96° |
| 2026-05-01 11:23 | 23.33501 | 49.44043 | 36838 ft | 555 kts | 96° |
| 2026-05-01 11:23 | 23.33110 | 49.52435 | 36840 ft | 555 kts | 96° |
| 2026-05-01 11:24 | 23.32714 | 49.60817 | 36833 ft | 554 kts | 96° |
| 2026-05-01 11:25 | 23.32112 | 49.73387 | 36840 ft | 554 kts | 96° |
| 2026-05-01 11:25 | 23.31502 | 49.85901 | 36842 ft | 555 kts | 96° |
| 2026-05-01 11:26 | 23.30878 | 49.98511 | 36835 ft | 555 kts | 96° |
| 2026-05-01 11:27 | 23.30457 | 50.06903 | 36840 ft | 555 kts | 96° |
| 2026-05-01 11:27 | 23.30035 | 50.15235 | 36838 ft | 555 kts | 96° |
| 2026-05-01 11:28 | 23.29605 | 50.23633 | 36837 ft | 555 kts | 96° |
| 2026-05-01 11:28 | 23.29171 | 50.32019 | 36828 ft | 555 kts | 96° |
| 2026-05-01 11:29 | 23.28512 | 50.44586 | 36834 ft | 554 kts | 96° |
| 2026-05-01 11:30 | 23.27847 | 50.57077 | 36833 ft | 554 kts | 96° |
| 2026-05-01 11:30 | 23.27396 | 50.65443 | 36828 ft | 554 kts | 96° |
| 2026-05-01 11:31 | 23.26940 | 50.73810 | 36831 ft | 554 kts | 96° |
| 2026-05-01 11:31 | 23.26569 | 50.80578 | 36831 ft | 554 kts | 96° |
| 2026-05-01 11:32 | 23.26393 | 50.83756 | 36824 ft | 554 kts | 96° |
| 2026-05-01 11:32 | 23.25928 | 50.92128 | 36826 ft | 554 kts | 96° |
| 2026-05-01 11:33 | 23.25538 | 50.99090 | 36816 ft | 554 kts | 96° |
| 2026-05-01 11:33 | 23.25065 | 51.07443 | 36835 ft | 554 kts | 96° |
| 2026-05-01 11:34 | 23.24588 | 51.15815 | 36822 ft | 554 kts | 96° |
| 2026-05-01 11:34 | 23.24097 | 51.24174 | 36819 ft | 554 kts | 96° |
| 2026-05-01 11:35 | 23.23597 | 51.32545 | 36822 ft | 554 kts | 96° |
| 2026-05-01 11:35 | 23.23098 | 51.40862 | 36830 ft | 554 kts | 96° |
| 2026-05-01 11:36 | 23.21949 | 51.49064 | 36829 ft | 544 kts | 114° |
| 2026-05-01 11:36 | 23.18677 | 51.56368 | 36838 ft | 536 kts | 121° |
| 2026-05-01 11:37 | 23.15632 | 51.63836 | 36816 ft | 541 kts | 117° |
| 2026-05-01 11:37 | 23.12813 | 51.71374 | 36816 ft | 542 kts | 116° |
| 2026-05-01 11:38 | 23.09915 | 51.78952 | 36813 ft | 543 kts | 117° |
| 2026-05-01 11:38 | 23.06960 | 51.86511 | 36815 ft | 543 kts | 117° |
| 2026-05-01 11:39 | 23.04017 | 51.94021 | 36816 ft | 543 kts | 117° |
| 2026-05-01 11:39 | 23.01055 | 52.01588 | 36810 ft | 543 kts | 117° |
| 2026-05-01 11:40 | 22.98090 | 52.09151 | 36804 ft | 543 kts | 117° |
| 2026-05-01 11:40 | 22.95148 | 52.16647 | 36807 ft | 543 kts | 117° |
| 2026-05-01 11:41 | 22.92186 | 52.24183 | 36799 ft | 542 kts | 117° |
| 2026-05-01 11:41 | 22.89223 | 52.31710 | 36798 ft | 542 kts | 117° |
| 2026-05-01 11:42 | 22.86261 | 52.39223 | 36799 ft | 541 kts | 117° |
| 2026-05-01 11:42 | 22.83293 | 52.46739 | 36800 ft | 541 kts | 117° |
| 2026-05-01 11:43 | 22.81313 | 52.54651 | 36794 ft | 550 kts | 97° |
| 2026-05-01 11:43 | 22.80680 | 52.62853 | 36801 ft | 550 kts | 98° |
| 2026-05-01 11:44 | 22.79284 | 52.75188 | 36802 ft | 550 kts | 100° |
| 2026-05-01 11:44 | 22.78248 | 52.83406 | 36802 ft | 551 kts | 100° |
| 2026-05-01 11:45 | 22.77224 | 52.91640 | 36794 ft | 551 kts | 100° |
| 2026-05-01 11:45 | 22.76221 | 52.99818 | 36800 ft | 550 kts | 100° |
| 2026-05-01 11:46 | 22.75210 | 53.08043 | 36792 ft | 550 kts | 100° |
| 2026-05-01 11:46 | 22.74196 | 53.16237 | 36791 ft | 549 kts | 100° |
| 2026-05-01 11:47 | 22.73176 | 53.24436 | 36789 ft | 548 kts | 100° |
| 2026-05-01 11:47 | 22.72153 | 53.32628 | 36786 ft | 548 kts | 100° |
| 2026-05-01 11:48 | 22.71127 | 53.40809 | 36789 ft | 548 kts | 100° |
| 2026-05-01 11:48 | 22.70097 | 53.48990 | 36790 ft | 548 kts | 100° |
| 2026-05-01 11:49 | 22.69070 | 53.57119 | 36775 ft | 547 kts | 100° |
| 2026-05-01 11:49 | 22.68031 | 53.65282 | 36786 ft | 546 kts | 100° |
| 2026-05-01 11:50 | 22.66989 | 53.73437 | 36786 ft | 546 kts | 100° |
| 2026-05-01 11:50 | 22.65946 | 53.81576 | 36779 ft | 545 kts | 100° |
| 2026-05-01 11:51 | 22.64899 | 53.89716 | 36784 ft | 545 kts | 100° |
| 2026-05-01 11:51 | 22.63854 | 53.97799 | 36778 ft | 545 kts | 100° |
| 2026-05-01 11:52 | 22.62797 | 54.05951 | 36780 ft | 545 kts | 100° |
| 2026-05-01 11:52 | 22.61736 | 54.14096 | 36787 ft | 546 kts | 100° |
| 2026-05-01 11:53 | 22.60679 | 54.22183 | 36766 ft | 546 kts | 100° |
| 2026-05-01 11:53 | 22.59613 | 54.30315 | 36776 ft | 545 kts | 100° |
| 2026-05-01 11:54 | 22.58545 | 54.38437 | 36778 ft | 545 kts | 100° |
| 2026-05-01 11:54 | 22.57476 | 54.46552 | 36775 ft | 544 kts | 100° |
| 2026-05-01 11:55 | 22.56401 | 54.54673 | 36773 ft | 544 kts | 100° |
| 2026-05-01 11:55 | 22.55326 | 54.62767 | 36773 ft | 544 kts | 100° |
| 2026-05-01 11:56 | 22.54253 | 54.70814 | 36776 ft | 543 kts | 100° |
| 2026-05-01 11:56 | 22.53171 | 54.78895 | 36769 ft | 543 kts | 100° |
| 2026-05-01 11:57 | 22.52082 | 54.86993 | 36767 ft | 543 kts | 100° |
| 2026-05-01 11:57 | 22.50991 | 54.95078 | 36761 ft | 543 kts | 100° |
| 2026-05-01 11:58 | 22.49902 | 55.03121 | 36764 ft | 543 kts | 100° |
| 2026-05-01 11:59 | 22.48255 | 55.15227 | 36768 ft | 542 kts | 100° |
| 2026-05-01 11:59 | 22.47151 | 55.23298 | 36770 ft | 542 kts | 100° |
| 2026-05-01 12:00 | 22.45587 | 55.35363 | 36759 ft | 541 kts | 93° |
| 2026-05-01 12:00 | 22.47025 | 55.43290 | 36787 ft | 541 kts | 64° |
| 2026-05-01 12:01 | 22.48704 | 55.46918 | 36779 ft | 539 kts | 62° |
| 2026-05-01 12:01 | 22.51724 | 55.54375 | 36784 ft | 543 kts | 67° |
| 2026-05-01 12:02 | 22.54479 | 55.62032 | 36786 ft | 546 kts | 68° |
| 2026-05-01 12:02 | 22.57240 | 55.69642 | 36784 ft | 548 kts | 67° |
| 2026-05-01 12:03 | 22.60083 | 55.77295 | 36779 ft | 549 kts | 67° |
| 2026-05-01 12:03 | 22.62947 | 55.84954 | 36785 ft | 548 kts | 67° |
| 2026-05-01 12:04 | 22.65800 | 55.92610 | 36786 ft | 547 kts | 67° |
| 2026-05-01 12:04 | 22.68635 | 56.00243 | 36792 ft | 545 kts | 67° |
| 2026-05-01 12:05 | 22.71458 | 56.07863 | 36793 ft | 544 kts | 67° |
| 2026-05-01 12:05 | 22.75680 | 56.19278 | 36801 ft | 543 kts | 67° |
| 2026-05-01 12:06 | 22.78466 | 56.26829 | 36803 ft | 543 kts | 67° |
| 2026-05-01 12:06 | 22.81268 | 56.34432 | 36801 ft | 543 kts | 67° |
| 2026-05-01 12:07 | 22.83787 | 56.42158 | 36803 ft | 544 kts | 77° |
| 2026-05-01 12:07 | 22.85203 | 56.50224 | 36806 ft | 544 kts | 80° |
| 2026-05-01 12:08 | 22.86566 | 56.58308 | 36829 ft | 545 kts | 79° |
| 2026-05-01 12:08 | 22.88039 | 56.66334 | 36831 ft | 546 kts | 78° |
| 2026-05-01 12:09 | 22.89575 | 56.74409 | 36842 ft | 546 kts | 78° |
| 2026-05-01 12:09 | 22.91108 | 56.82492 | 36839 ft | 546 kts | 78° |
| 2026-05-01 12:10 | 22.93379 | 56.94604 | 36862 ft | 546 kts | 78° |
| 2026-05-01 12:11 | 22.94989 | 57.03236 | 36874 ft | 546 kts | 78° |
| 2026-05-01 12:11 | 22.96484 | 57.11269 | 36869 ft | 545 kts | 78° |
| 2026-05-01 12:12 | 22.97980 | 57.19331 | 36887 ft | 544 kts | 78° |
| 2026-05-01 12:12 | 22.99472 | 57.27394 | 36876 ft | 544 kts | 78° |
| 2026-05-01 12:13 | 23.00543 | 57.35513 | 36880 ft | 543 kts | 89° |
| 2026-05-01 12:13 | 23.00652 | 57.43652 | 36879 ft | 543 kts | 90° |
| 2026-05-01 12:14 | 23.00774 | 57.51857 | 36879 ft | 543 kts | 89° |
| 2026-05-01 12:14 | 23.01014 | 57.60046 | 36888 ft | 543 kts | 88° |
| 2026-05-01 12:15 | 23.01284 | 57.68248 | 36878 ft | 543 kts | 88° |
| 2026-05-01 12:15 | 23.01536 | 57.76387 | 36864 ft | 543 kts | 89° |
| 2026-05-01 12:16 | 23.01779 | 57.84589 | 36861 ft | 542 kts | 89° |
| 2026-05-01 12:16 | 23.01883 | 57.92790 | 36858 ft | 542 kts | 91° |
| 2026-05-01 12:17 | 23.01844 | 58.00933 | 36847 ft | 543 kts | 91° |
| 2026-05-01 12:17 | 23.01817 | 58.09135 | 36844 ft | 543 kts | 91° |
| 2026-05-01 12:18 | 23.01816 | 58.17348 | 36840 ft | 543 kts | 90° |
| 2026-05-01 12:18 | 23.01815 | 58.25549 | 36840 ft | 543 kts | 90° |
| 2026-05-01 12:19 | 23.01806 | 58.33767 | 36835 ft | 544 kts | 90° |
| 2026-05-01 12:19 | 23.01851 | 58.41970 | 36824 ft | 545 kts | 89° |
| 2026-05-01 12:20 | 23.02159 | 58.50183 | 36823 ft | 545 kts | 87° |
| 2026-05-01 12:20 | 23.02495 | 58.58343 | 36817 ft | 543 kts | 88° |
| 2026-05-01 12:21 | 23.02782 | 58.66543 | 36820 ft | 542 kts | 88° |
| 2026-05-01 12:21 | 23.03043 | 58.74735 | 36814 ft | 542 kts | 88° |
| 2026-05-01 12:22 | 23.03257 | 58.81535 | 36810 ft | 542 kts | 88° |
| 2026-05-01 12:22 | 23.03515 | 58.89717 | 36806 ft | 541 kts | 88° |
| 2026-05-01 12:23 | 23.03769 | 58.97868 | 36824 ft | 540 kts | 88° |
| 2026-05-01 12:23 | 23.04012 | 59.05976 | 36812 ft | 540 kts | 88° |
| 2026-05-01 12:24 | 23.04249 | 59.14162 | 36824 ft | 541 kts | 88° |
| 2026-05-01 12:24 | 23.04482 | 59.22336 | 36810 ft | 541 kts | 88° |
| 2026-05-01 12:25 | 23.04825 | 59.34558 | 36817 ft | 542 kts | 88° |
| 2026-05-01 12:26 | 23.05019 | 59.42745 | 36793 ft | 542 kts | 89° |
| 2026-05-01 12:26 | 23.05194 | 59.55048 | 36788 ft | 542 kts | 89° |
| 2026-05-01 12:27 | 23.05374 | 59.67316 | 36785 ft | 542 kts | 89° |
| 2026-05-01 12:28 | 23.05554 | 59.79527 | 36786 ft | 541 kts | 89° |
| 2026-05-01 12:29 | 23.05722 | 59.91770 | 36788 ft | 540 kts | 89° |
| 2026-05-01 12:29 | 23.05861 | 60.04021 | 36787 ft | 540 kts | 89° |
| 2026-05-01 12:30 | 23.05989 | 60.16220 | 36794 ft | 540 kts | 89° |
| 2026-05-01 12:31 | 23.06073 | 60.24391 | 36796 ft | 540 kts | 89° |
| 2026-05-01 12:31 | 23.06154 | 60.32568 | 36790 ft | 540 kts | 89° |
| 2026-05-01 12:32 | 23.06234 | 60.40685 | 36788 ft | 540 kts | 89° |
| 2026-05-01 12:32 | 23.06352 | 60.52928 | 36789 ft | 540 kts | 89° |
| 2026-05-01 12:33 | 23.06428 | 60.61074 | 36787 ft | 540 kts | 89° |
| 2026-05-01 12:33 | 23.06503 | 60.69217 | 36787 ft | 539 kts | 89° |
| 2026-05-01 12:34 | 23.06578 | 60.77369 | 36790 ft | 539 kts | 89° |
| 2026-05-01 12:34 | 23.06651 | 60.85509 | 36789 ft | 539 kts | 89° |
| 2026-05-01 12:35 | 23.06722 | 60.93661 | 36788 ft | 539 kts | 89° |